Time;durP1;ratioP1;P1;durP2;ratioP2;P2;SDS_P1;SDS_P2;PMS_P1;PMS_P2;Temp;Humidity;BMP_temperature;BMP_pressure;BME280_temperature;BME280_humidity;BME280_pressure;Samples;Min_cycle;Max_cycle;Signal;HPM_P1;HPM_P2
2023/12/26 00:02:17;;;;;;;65.78;10.80;;;11.10;99.90;;;;;;5114367;28;20073;-71
2023/12/26 00:04:43;;;;;;;52.60;9.95;;;11.20;99.90;;;;;;5113512;28;20524;-71
2023/12/26 00:07:08;;;;;;;63.38;11.32;;;11.20;99.90;;;;;;5114793;28;20369;-71
2023/12/26 00:09:37;;;;;;;49.63;10.00;;;11.20;99.90;;;;;;5111823;28;20031;-71
2023/12/26 00:12:03;;;;;;;60.33;11.23;;;11.10;99.90;;;;;;5112310;28;20024;-71
2023/12/26 00:14:30;;;;;;;47.95;9.82;;;11.10;99.90;;;;;;5112949;28;20019;-71
2023/12/26 00:16:55;;;;;;;51.58;8.93;;;11.10;99.90;;;;;;5114095;28;20051;-71
2023/12/26 00:19:21;;;;;;;42.03;9.82;;;11.10;99.90;;;;;;5113916;28;20055;-71
2023/12/26 00:21:46;;;;;;;42.15;8.52;;;11.10;99.90;;;;;;5112750;28;20433;-71
2023/12/26 00:24:12;;;;;;;52.65;8.02;;;11.10;99.90;;;;;;5114167;28;20068;-71
2023/12/26 00:26:38;;;;;;;42.40;8.15;;;11.10;99.90;;;;;;5112874;28;20073;-72
2023/12/26 00:29:08;;;;;;;28.63;6.40;;;11.10;99.90;;;;;;5114505;28;20035;-72
2023/12/26 00:31:33;;;;;;;29.08;6.78;;;11.10;99.90;;;;;;5113796;28;20033;-72
2023/12/26 00:33:59;;;;;;;41.15;6.93;;;11.10;99.90;;;;;;5114813;28;20019;-71
2023/12/26 00:36:25;;;;;;;38.65;6.00;;;11.10;99.90;;;;;;5114661;28;20111;-71
2023/12/26 00:38:50;;;;;;;31.52;6.22;;;11.00;99.90;;;;;;5114780;28;20088;-71
2023/12/26 00:41:16;;;;;;;27.42;5.80;;;11.00;99.90;;;;;;5111523;28;20437;-71
2023/12/26 00:43:42;;;;;;;31.70;6.53;;;11.10;99.90;;;;;;5112797;28;20614;-71
2023/12/26 00:46:08;;;;;;;31.50;5.88;;;11.00;99.90;;;;;;5114498;28;20031;-71
2023/12/26 00:48:36;;;;;;;32.83;6.35;;;11.00;99.90;;;;;;5104393;28;20042;-71
2023/12/26 00:51:02;;;;;;;25.70;5.38;;;11.10;99.90;;;;;;5113429;28;20033;-71
2023/12/26 00:53:28;;;;;;;30.20;6.60;;;11.00;99.90;;;;;;5114581;28;20103;-71
2023/12/26 00:55:54;;;;;;;32.83;5.32;;;11.10;99.90;;;;;;5114174;28;20349;-71
2023/12/26 00:58:19;;;;;;;33.60;5.85;;;11.10;99.90;;;;;;5112557;28;20031;-71
2023/12/26 01:00:45;;;;;;;30.27;5.57;;;11.10;99.90;;;;;;5104046;28;20043;-71
2023/12/26 01:03:12;;;;;;;27.77;5.68;;;11.10;99.90;;;;;;5110523;28;20039;-71
2023/12/26 01:05:37;;;;;;;25.25;5.65;;;11.20;99.90;;;;;;5101904;28;20030;-72
2023/12/26 01:08:03;;;;;;;30.10;5.82;;;11.20;99.90;;;;;;5110948;28;20028;-72
2023/12/26 01:10:29;;;;;;;23.15;4.38;;;11.20;99.90;;;;;;5103439;28;20070;-74
2023/12/26 01:12:54;;;;;;;25.88;5.25;;;11.20;99.90;;;;;;5109720;28;20031;-73
2023/12/26 01:15:21;;;;;;;32.83;5.30;;;11.20;99.90;;;;;;5112505;28;20019;-70
2023/12/26 01:17:46;;;;;;;31.70;5.50;;;11.20;99.90;;;;;;5113826;28;20107;-72
2023/12/26 01:20:12;;;;;;;32.03;5.10;;;11.30;99.90;;;;;;5104070;28;20106;-71
2023/12/26 01:22:37;;;;;;;31.63;5.55;;;11.30;99.90;;;;;;5113719;28;20053;-72
2023/12/26 01:25:05;;;;;;;30.67;6.15;;;11.20;99.90;;;;;;5112145;28;20465;-71
2023/12/26 01:27:31;;;;;;;26.42;5.10;;;11.30;99.90;;;;;;5108826;28;20072;-71
2023/12/26 01:29:56;;;;;;;28.55;6.25;;;11.20;99.90;;;;;;5110161;28;20032;-71
2023/12/26 01:32:22;;;;;;;29.77;5.32;;;11.20;99.90;;;;;;5113741;28;20033;-70
2023/12/26 01:34:49;;;;;;;22.33;4.45;;;11.30;99.90;;;;;;5110081;27;20049;-72
2023/12/26 01:37:15;;;;;;;24.17;5.03;;;11.30;99.90;;;;;;5113653;28;20097;-72
2023/12/26 01:39:40;;;;;;;20.08;5.50;;;11.20;99.90;;;;;;5113594;28;20140;-71
2023/12/26 01:42:06;;;;;;;28.98;5.30;;;11.30;99.90;;;;;;5113303;28;20027;-71
2023/12/26 01:44:31;;;;;;;25.33;4.80;;;11.20;99.90;;;;;;5112081;28;20031;-73
2023/12/26 01:46:58;;;;;;;22.33;5.18;;;11.20;99.90;;;;;;5113457;28;20032;-71
2023/12/26 01:49:24;;;;;;;27.90;4.88;;;11.20;99.90;;;;;;5109090;28;20056;-72
2023/12/26 01:51:51;;;;;;;28.10;4.90;;;11.10;99.90;;;;;;5110215;28;20421;-73
2023/12/26 01:54:19;;;;;;;27.98;5.63;;;11.00;99.90;;;;;;5112075;28;20362;-72
2023/12/26 01:56:47;;;;;;;30.27;5.28;;;11.00;99.90;;;;;;5103210;28;20527;-71
2023/12/26 01:59:13;;;;;;;25.50;5.07;;;11.00;99.90;;;;;;5113313;28;20058;-71
2023/12/26 02:01:39;;;;;;;18.48;4.47;;;11.00;99.90;;;;;;5113260;28;20045;-71
2023/12/26 02:04:04;;;;;;;21.30;4.43;;;11.00;99.90;;;;;;5108094;28;20066;-72
2023/12/26 02:06:31;;;;;;;20.83;4.18;;;10.90;99.90;;;;;;5113352;28;20047;-71
2023/12/26 02:08:57;;;;;;;21.85;3.90;;;10.90;99.90;;;;;;5111577;28;20072;-71
2023/12/26 02:11:22;;;;;;;17.25;4.32;;;10.90;99.90;;;;;;5112792;28;20384;-71
2023/12/26 02:13:48;;;;;;;21.05;4.50;;;10.80;99.90;;;;;;5109740;28;20031;-72
2023/12/26 02:16:18;;;;;;;25.58;5.00;;;10.80;99.90;;;;;;5112076;28;20016;-72
2023/12/26 02:18:44;;;;;;;20.25;4.57;;;10.70;99.90;;;;;;5112841;28;20020;-72
2023/12/26 02:21:11;;;;;;;23.05;5.00;;;10.70;99.90;;;;;;5105195;28;20106;-71
2023/12/26 02:23:38;;;;;;;22.95;5.10;;;10.70;99.90;;;;;;5106444;28;20032;-71
2023/12/26 02:26:05;;;;;;;20.40;4.28;;;10.70;99.90;;;;;;5106019;27;20384;-71
2023/12/26 02:28:36;;;;;;;25.65;5.03;;;10.70;99.90;;;;;;5109724;28;20024;-71
2023/12/26 02:31:03;;;;;;;22.83;4.90;;;10.70;99.90;;;;;;5100647;28;20369;-71
2023/12/26 02:33:30;;;;;;;16.35;4.57;;;10.70;99.90;;;;;;5111892;28;20026;-71
2023/12/26 02:35:57;;;;;;;25.60;4.72;;;10.70;99.90;;;;;;5108784;28;20031;-71
2023/12/26 02:38:22;;;;;;;20.73;4.45;;;10.70;99.90;;;;;;5112533;28;20365;-71
2023/12/26 02:40:52;;;;;;;19.73;4.28;;;10.70;99.90;;;;;;5112832;28;20081;-71
2023/12/26 02:43:21;;;;;;;21.45;4.53;;;10.70;99.90;;;;;;5112933;28;20469;-71
2023/12/26 02:45:48;;;;;;;19.15;4.15;;;10.70;99.90;;;;;;5111676;28;20484;-71
2023/12/26 02:48:16;;;;;;;19.75;4.38;;;10.70;99.90;;;;;;5112958;28;20031;-71
2023/12/26 02:50:41;;;;;;;17.50;4.00;;;10.70;99.90;;;;;;5112897;28;20036;-71
2023/12/26 02:53:07;;;;;;;13.02;3.38;;;10.70;99.90;;;;;;5111373;28;20382;-71
2023/12/26 02:55:33;;;;;;;12.05;3.22;;;10.60;99.90;;;;;;5104015;28;20496;-71
2023/12/26 02:57:58;;;;;;;13.73;3.13;;;10.50;99.90;;;;;;5112748;28;20027;-71
2023/12/26 03:00:24;;;;;;;16.67;3.53;;;10.50;99.90;;;;;;5111372;28;20052;-71
2023/12/26 03:02:49;;;;;;;14.70;3.92;;;10.40;99.90;;;;;;5112353;28;20039;-71
2023/12/26 03:05:15;;;;;;;14.40;3.17;;;10.40;99.90;;;;;;5110988;28;20042;-71
2023/12/26 03:07:40;;;;;;;23.98;3.60;;;10.30;99.90;;;;;;5111210;28;20028;-71
2023/12/26 03:10:09;;;;;;;15.35;3.33;;;10.20;99.90;;;;;;5093877;28;20115;-71
2023/12/26 03:12:37;;;;;;;15.50;3.25;;;10.10;99.90;;;;;;5092309;28;20068;-71
2023/12/26 03:15:03;;;;;;;13.27;3.35;;;10.10;99.90;;;;;;5091649;28;20024;-71
2023/12/26 03:17:29;;;;;;;14.95;2.88;;;10.10;99.90;;;;;;5108027;28;20028;-71
2023/12/26 03:19:55;;;;;;;20.40;3.55;;;10.10;99.90;;;;;;5112249;28;20035;-71
2023/12/26 03:22:21;;;;;;;17.15;3.40;;;10.10;99.90;;;;;;5111153;28;20044;-72
2023/12/26 03:24:47;;;;;;;13.80;2.80;;;10.00;99.90;;;;;;5112505;28;20019;-72
2023/12/26 03:27:13;;;;;;;15.85;3.30;;;10.00;99.90;;;;;;5093913;28;20539;-72
2023/12/26 03:29:44;;;;;;;12.93;2.92;;;9.90;99.90;;;;;;5091926;28;20046;-71
2023/12/26 03:32:10;;;;;;;13.55;3.30;;;9.90;99.90;;;;;;5107726;28;20038;-72
2023/12/26 03:34:39;;;;;;;18.08;3.20;;;9.80;99.90;;;;;;5110350;28;20027;-72
2023/12/26 03:37:05;;;;;;;15.35;3.38;;;9.80;99.90;;;;;;5092008;28;20105;-71
2023/12/26 03:39:32;;;;;;;19.33;3.58;;;9.80;99.90;;;;;;5091916;28;20420;-71
2023/12/26 03:41:57;;;;;;;22.17;3.63;;;9.80;99.90;;;;;;5091754;28;20446;-71
2023/12/26 03:44:23;;;;;;;19.88;3.42;;;9.80;99.90;;;;;;5091987;28;20024;-71
2023/12/26 03:46:49;;;;;;;18.10;3.20;;;9.80;99.90;;;;;;5109802;28;20085;-72
2023/12/26 03:49:14;;;;;;;13.25;2.90;;;9.90;99.90;;;;;;5112021;28;20020;-71
2023/12/26 03:51:40;;;;;;;20.67;4.70;;;10.00;99.90;;;;;;5113936;28;20453;-71
2023/12/26 03:54:05;;;;;;;19.75;3.65;;;10.00;99.90;;;;;;5115712;28;20015;-72
2023/12/26 03:56:32;;;;;;;22.48;3.92;;;10.00;99.90;;;;;;5111079;28;20801;-71
2023/12/26 03:58:59;;;;;;;19.30;4.35;;;9.90;99.90;;;;;;5095088;28;20169;-72
2023/12/26 04:01:25;;;;;;;22.13;4.50;;;9.80;99.90;;;;;;5094920;28;20497;-71
2023/12/26 04:03:51;;;;;;;19.27;3.88;;;9.80;99.90;;;;;;5095223;28;20047;-70
2023/12/26 04:06:17;;;;;;;20.77;4.00;;;9.70;99.90;;;;;;5104236;28;20532;-71
2023/12/26 04:08:43;;;;;;;16.67;4.20;;;9.70;99.90;;;;;;5111357;28;20027;-72
2023/12/26 04:11:12;;;;;;;18.10;4.60;;;9.70;99.90;;;;;;5113732;28;20034;-71
2023/12/26 04:13:37;;;;;;;18.40;4.35;;;9.60;99.90;;;;;;5097037;28;20361;-71
2023/12/26 04:16:03;;;;;;;19.02;4.32;;;9.60;99.90;;;;;;5113777;28;20034;-71
2023/12/26 04:18:29;;;;;;;14.15;3.85;;;9.60;99.90;;;;;;5113239;28;20437;-71
2023/12/26 04:20:55;;;;;;;22.08;4.78;;;9.50;99.90;;;;;;5110233;28;20487;-71
2023/12/26 04:23:20;;;;;;;19.17;4.57;;;9.50;99.90;;;;;;5115283;28;20046;-71
2023/12/26 04:25:46;;;;;;;19.52;3.70;;;9.50;99.90;;;;;;5107231;28;20024;-71
2023/12/26 04:28:12;;;;;;;17.83;4.32;;;9.40;99.90;;;;;;5095198;28;20025;-71
2023/12/26 04:30:37;;;;;;;19.80;4.82;;;9.40;99.90;;;;;;5094615;28;20110;-72
2023/12/26 04:33:05;;;;;;;16.45;3.63;;;9.40;99.90;;;;;;5102465;28;20028;-71
2023/12/26 04:35:31;;;;;;;13.75;3.88;;;9.40;99.90;;;;;;5112052;28;20397;-71
2023/12/26 04:37:56;;;;;;;15.27;3.38;;;9.40;99.90;;;;;;5093930;28;20028;-71
2023/12/26 04:40:22;;;;;;;17.58;4.00;;;9.30;99.90;;;;;;5094729;28;20030;-71
2023/12/26 04:42:47;;;;;;;20.52;4.15;;;9.30;99.90;;;;;;5094267;28;20028;-70
2023/12/26 04:45:13;;;;;;;17.15;3.78;;;9.30;99.90;;;;;;5094381;28;20426;-71
2023/12/26 04:47:39;;;;;;;22.33;4.25;;;9.30;99.90;;;;;;5113512;28;20031;-71
2023/12/26 04:50:05;;;;;;;21.63;4.07;;;9.30;99.90;;;;;;5115074;28;20023;-70
2023/12/26 04:52:30;;;;;;;21.60;3.90;;;9.30;99.90;;;;;;5114990;28;20385;-71
2023/12/26 04:54:56;;;;;;;21.48;4.20;;;9.30;99.90;;;;;;5113307;28;20032;-71
2023/12/26 04:57:21;;;;;;;22.52;3.75;;;9.30;99.90;;;;;;5113707;28;20035;-71
2023/12/26 04:59:47;;;;;;;23.55;4.07;;;9.30;99.90;;;;;;5114269;28;20027;-70
2023/12/26 05:02:12;;;;;;;20.20;3.60;;;9.30;99.90;;;;;;5113684;28;20035;-71
2023/12/26 05:04:38;;;;;;;20.08;3.70;;;9.30;99.90;;;;;;5114744;28;20020;-70
2023/12/26 05:07:04;;;;;;;19.67;4.65;;;9.30;99.90;;;;;;5113378;28;20027;-70
2023/12/26 05:09:29;;;;;;;24.08;4.65;;;9.30;99.90;;;;;;5114217;28;20389;-71
2023/12/26 05:11:55;;;;;;;19.48;3.78;;;9.40;99.90;;;;;;5112848;28;20122;-71
2023/12/26 05:14:20;;;;;;;20.48;4.07;;;9.40;99.90;;;;;;5114189;28;20066;-70
2023/12/26 05:16:48;;;;;;;22.13;4.13;;;9.50;99.90;;;;;;5102824;28;20028;-70
2023/12/26 05:19:14;;;;;;;17.95;3.63;;;9.50;99.90;;;;;;5093878;28;20035;-70
2023/12/26 05:21:40;;;;;;;21.15;3.67;;;9.60;99.90;;;;;;5093982;28;20055;-70
2023/12/26 05:24:06;;;;;;;18.85;3.42;;;9.70;99.90;;;;;;5093772;28;20078;-71
2023/12/26 05:26:45;;;;;;;20.77;4.07;;;9.70;99.90;;;;;;5103751;28;20028;-70
2023/12/26 05:29:12;;;;;;;21.85;3.42;;;9.80;99.90;;;;;;5113871;28;20507;-70
2023/12/26 05:31:40;;;;;;;17.92;3.70;;;9.80;99.90;;;;;;5114216;28;20031;-70
2023/12/26 05:34:07;;;;;;;13.73;3.80;;;9.80;99.90;;;;;;5113154;28;20476;-70
2023/12/26 05:36:33;;;;;;;18.02;3.55;;;9.80;99.90;;;;;;5114096;28;20027;-70
2023/12/26 05:38:59;;;;;;;21.25;4.50;;;9.80;99.90;;;;;;5093643;28;20032;-70
2023/12/26 05:41:25;;;;;;;19.10;3.45;;;9.80;99.90;;;;;;5093351;28;20024;-71
2023/12/26 05:43:51;;;;;;;16.98;3.58;;;9.80;99.90;;;;;;5094078;28;20587;-70
2023/12/26 05:46:20;;;;;;;15.85;3.70;;;9.80;99.90;;;;;;5093655;28;20028;-70
2023/12/26 05:48:46;;;;;;;18.20;3.25;;;9.80;99.90;;;;;;5093589;28;20036;-70
2023/12/26 05:51:11;;;;;;;18.88;3.22;;;9.80;99.90;;;;;;5092467;28;20028;-71
2023/12/26 05:53:37;;;;;;;22.00;3.80;;;9.80;99.90;;;;;;5109027;28;20435;-71
2023/12/26 05:56:03;;;;;;;20.27;3.38;;;9.80;99.90;;;;;;5110954;28;20067;-71
2023/12/26 05:58:28;;;;;;;17.13;3.53;;;9.80;99.90;;;;;;5093330;28;20028;-71
2023/12/26 06:00:54;;;;;;;22.75;3.95;;;9.70;99.90;;;;;;5093296;28;20048;-71
2023/12/26 06:03:20;;;;;;;15.38;3.88;;;9.70;99.90;;;;;;5093124;28;20089;-71
2023/12/26 06:05:46;;;;;;;20.02;3.67;;;9.60;99.90;;;;;;5092047;28;20032;-70
2023/12/26 06:08:13;;;;;;;18.80;3.72;;;9.60;99.90;;;;;;5113106;28;20040;-71
2023/12/26 06:10:39;;;;;;;19.23;4.00;;;9.50;99.90;;;;;;5113300;28;20039;-71
2023/12/26 06:13:05;;;;;;;20.63;4.63;;;9.50;99.90;;;;;;5112970;28;20384;-70
2023/12/26 06:15:30;;;;;;;22.02;3.78;;;9.50;99.90;;;;;;5113364;28;20023;-71
2023/12/26 06:17:58;;;;;;;23.67;4.05;;;9.40;99.90;;;;;;5095063;28;20115;-71
2023/12/26 06:20:26;;;;;;;18.95;3.85;;;9.30;99.90;;;;;;5097320;28;20027;-70
2023/12/26 06:22:52;;;;;;;19.92;4.18;;;9.30;99.90;;;;;;5111722;28;20469;-71
2023/12/26 06:25:17;;;;;;;22.20;3.92;;;9.30;99.90;;;;;;5111735;28;20031;-71
2023/12/26 06:27:43;;;;;;;20.48;3.88;;;9.20;99.90;;;;;;5113289;28;20019;-71
2023/12/26 06:30:10;;;;;;;24.38;3.72;;;9.20;99.90;;;;;;5112854;28;20036;-70
2023/12/26 06:32:36;;;;;;;19.45;3.90;;;9.20;99.90;;;;;;5112044;28;20388;-71
2023/12/26 06:35:01;;;;;;;19.77;4.18;;;9.20;99.90;;;;;;5113244;28;20032;-71
2023/12/26 06:37:27;;;;;;;19.15;4.10;;;9.20;99.90;;;;;;5113417;28;20077;-70
2023/12/26 06:39:53;;;;;;;20.38;3.88;;;9.10;99.90;;;;;;5111178;28;20024;-70
2023/12/26 06:42:18;;;;;;;17.30;3.75;;;9.10;99.90;;;;;;5111760;28;20036;-71
2023/12/26 06:44:44;;;;;;;21.42;5.38;;;9.10;99.90;;;;;;5113061;28;20028;-71
2023/12/26 06:47:12;;;;;;;20.55;4.03;;;9.10;99.90;;;;;;5112160;28;20028;-70
2023/12/26 06:49:41;;;;;;;22.02;3.90;;;9.20;99.90;;;;;;5113089;28;20055;-70
2023/12/26 06:52:07;;;;;;;18.42;4.00;;;9.20;99.90;;;;;;5113162;28;20028;-71
2023/12/26 06:54:33;;;;;;;18.10;3.83;;;9.20;99.90;;;;;;5109724;28;20518;-71
2023/12/26 06:57:05;;;;;;;20.50;4.30;;;9.10;99.90;;;;;;5112739;28;20098;-70
2023/12/26 06:59:31;;;;;;;19.80;4.25;;;9.10;99.90;;;;;;5113029;28;20107;-70
2023/12/26 07:01:56;;;;;;;15.00;3.85;;;9.10;99.90;;;;;;5109091;28;20166;-70
2023/12/26 07:04:22;;;;;;;19.73;3.97;;;9.10;99.90;;;;;;5110045;28;20034;-71
2023/12/26 07:06:47;;;;;;;23.48;4.25;;;9.10;99.90;;;;;;5112158;28;20019;-70
2023/12/26 07:09:13;;;;;;;23.00;3.85;;;9.10;99.90;;;;;;5111777;28;20062;-70
2023/12/26 07:11:38;;;;;;;19.17;3.75;;;9.20;99.90;;;;;;5112246;28;20461;-70
2023/12/26 07:14:04;;;;;;;19.67;3.78;;;9.20;99.90;;;;;;5110346;28;20491;-71
2023/12/26 07:16:30;;;;;;;22.35;4.28;;;9.20;99.90;;;;;;5111965;28;20032;-71
2023/12/26 07:18:56;;;;;;;21.70;4.07;;;9.20;99.90;;;;;;5109981;28;20096;-71
2023/12/26 07:21:22;;;;;;;19.67;4.05;;;9.10;99.90;;;;;;5109937;28;20032;-71
2023/12/26 07:23:47;;;;;;;19.67;3.95;;;9.10;99.90;;;;;;5112312;28;20036;-71
2023/12/26 07:26:13;;;;;;;21.92;4.07;;;9.10;99.90;;;;;;5114865;28;20016;-71
2023/12/26 07:28:39;;;;;;;20.30;4.10;;;9.10;99.90;;;;;;5115630;28;20020;-71
2023/12/26 07:31:05;;;;;;;23.77;4.32;;;9.10;99.90;;;;;;5116038;28;20030;-72
2023/12/26 07:33:31;;;;;;;19.52;3.97;;;9.10;99.90;;;;;;5111390;28;20370;-70
2023/12/26 07:35:57;;;;;;;19.40;3.80;;;9.10;99.90;;;;;;5107843;28;20042;-70
2023/12/26 07:38:26;;;;;;;24.10;4.65;;;9.10;99.90;;;;;;5103597;28;20032;-70
2023/12/26 07:40:51;;;;;;;20.63;4.28;;;9.10;99.90;;;;;;5104493;28;20032;-70
2023/12/26 07:43:17;;;;;;;26.05;4.25;;;9.00;99.90;;;;;;5112952;27;20100;-70
2023/12/26 07:45:43;;;;;;;22.13;3.78;;;9.10;99.90;;;;;;5113660;28;20030;-71
2023/12/26 07:48:10;;;;;;;19.60;3.83;;;9.10;99.90;;;;;;5113606;28;20111;-71
2023/12/26 07:50:36;;;;;;;20.50;4.38;;;9.10;99.90;;;;;;5110130;28;20055;-71
2023/12/26 07:53:02;;;;;;;24.23;4.65;;;9.10;99.90;;;;;;5114942;28;20059;-71
2023/12/26 07:55:29;;;;;;;20.77;4.10;;;9.10;99.90;;;;;;5114492;28;20039;-70
2023/12/26 07:57:54;;;;;;;17.77;4.10;;;9.10;99.90;;;;;;5114373;28;20039;-70
2023/12/26 08:00:20;;;;;;;21.67;4.82;;;9.00;99.90;;;;;;5114276;28;20435;-70
2023/12/26 08:02:46;;;;;;;21.63;4.82;;;9.00;99.90;;;;;;5114341;28;20109;-70
2023/12/26 08:05:11;;;;;;;24.13;4.47;;;9.10;99.90;;;;;;5104003;28;20032;-70
2023/12/26 08:07:37;;;;;;;23.83;4.15;;;9.00;99.90;;;;;;5112273;28;20073;-71
2023/12/26 08:10:03;;;;;;;21.08;4.50;;;9.10;99.90;;;;;;5113146;28;20035;-71
2023/12/26 08:12:28;;;;;;;17.52;3.50;;;9.10;99.90;;;;;;5101704;28;20110;-71
2023/12/26 08:14:54;;;;;;;18.73;3.95;;;9.10;99.90;;;;;;5115236;28;20031;-71
2023/12/26 08:17:19;;;;;;;19.85;4.10;;;9.10;99.90;;;;;;5112576;28;20016;-71
2023/12/26 08:19:45;;;;;;;25.00;4.47;;;9.20;99.90;;;;;;5115116;28;20031;-71
2023/12/26 08:22:10;;;;;;;29.48;4.68;;;9.20;99.90;;;;;;5111599;28;20043;-70
2023/12/26 08:24:36;;;;;;;25.75;4.22;;;9.30;99.90;;;;;;5114745;28;20031;-71
2023/12/26 08:27:02;;;;;;;19.52;3.90;;;9.30;99.90;;;;;;5113638;28;20034;-71
2023/12/26 08:29:27;;;;;;;23.73;3.72;;;9.40;99.90;;;;;;5107940;28;20551;-70
2023/12/26 08:31:53;;;;;;;24.60;4.53;;;9.40;99.90;;;;;;5107332;28;20173;-70
2023/12/26 08:34:19;;;;;;;29.00;4.10;;;9.50;99.90;;;;;;5111236;28;20020;-71
2023/12/26 08:36:45;;;;;;;23.60;4.05;;;9.50;99.90;;;;;;5112709;28;20602;-71
2023/12/26 08:39:10;;;;;;;23.42;4.50;;;9.50;99.90;;;;;;5114840;28;20028;-70
2023/12/26 08:41:36;;;;;;;21.40;5.00;;;9.50;99.90;;;;;;5108877;28;20461;-71
2023/12/26 08:44:02;;;;;;;25.58;4.18;;;9.50;99.90;;;;;;5114803;28;20472;-70
2023/12/26 08:46:27;;;;;;;23.67;4.10;;;9.50;99.90;;;;;;5113780;28;20035;-70
2023/12/26 08:48:53;;;;;;;18.48;3.78;;;9.50;99.90;;;;;;5114332;28;20050;-70
2023/12/26 08:51:19;;;;;;;20.80;4.35;;;9.50;99.90;;;;;;5113782;28;20027;-70
2023/12/26 08:53:46;;;;;;;20.73;4.95;;;9.50;99.90;;;;;;5114707;28;20052;-70
2023/12/26 08:56:11;;;;;;;19.77;3.88;;;9.60;99.90;;;;;;5114547;28;20028;-70
2023/12/26 08:58:37;;;;;;;22.00;4.53;;;9.70;99.90;;;;;;5113162;28;20053;-70
2023/12/26 09:01:02;;;;;;;18.33;4.03;;;9.80;99.90;;;;;;5113510;28;20109;-70
2023/12/26 09:03:28;;;;;;;23.08;4.00;;;10.00;99.90;;;;;;5114222;28;20537;-70
2023/12/26 09:05:54;;;;;;;26.15;4.72;;;10.00;99.90;;;;;;5107584;28;20032;-70
2023/12/26 09:08:20;;;;;;;22.67;4.40;;;10.10;99.90;;;;;;5111589;28;20110;-71
2023/12/26 09:10:45;;;;;;;23.15;3.90;;;10.10;99.90;;;;;;5113077;28;20445;-71
2023/12/26 09:13:11;;;;;;;20.77;3.78;;;10.10;99.90;;;;;;5107355;28;20523;-71
2023/12/26 09:15:37;;;;;;;22.77;4.88;;;10.20;99.90;;;;;;5114171;28;20030;-70
2023/12/26 09:18:03;;;;;;;27.17;4.57;;;10.20;99.90;;;;;;5113975;28;20019;-71
2023/12/26 09:20:29;;;;;;;25.50;4.03;;;10.20;99.90;;;;;;5110479;28;20055;-70
2023/12/26 09:22:54;;;;;;;18.80;3.47;;;10.30;99.90;;;;;;5114059;28;20070;-71
2023/12/26 09:25:20;;;;;;;21.00;3.17;;;10.30;99.90;;;;;;5114149;28;20026;-70
2023/12/26 09:27:46;;;;;;;24.15;4.28;;;10.40;99.90;;;;;;5113785;28;20023;-70
2023/12/26 09:30:12;;;;;;;21.60;3.92;;;10.50;99.90;;;;;;5101746;28;20028;-71
2023/12/26 09:32:37;;;;;;;22.70;4.32;;;10.50;99.90;;;;;;5113474;28;20050;-71
2023/12/26 09:35:03;;;;;;;20.88;4.25;;;10.60;99.90;;;;;;5113647;28;20457;-70
2023/12/26 09:37:29;;;;;;;22.48;4.18;;;10.70;99.90;;;;;;5078467;28;20115;-71
2023/12/26 09:39:54;;;;;;;25.77;4.70;;;10.80;99.90;;;;;;5112657;28;20573;-70
2023/12/26 09:42:22;;;;;;;18.92;3.67;;;10.90;99.90;;;;;;5100106;28;20039;-70
2023/12/26 09:44:49;;;;;;;23.92;3.85;;;11.10;99.90;;;;;;5113867;28;20016;-70
2023/12/26 09:47:16;;;;;;;21.65;3.88;;;11.20;99.90;;;;;;5113335;28;20031;-70
2023/12/26 09:49:43;;;;;;;18.80;3.42;;;11.30;99.90;;;;;;5112623;28;20038;-71
2023/12/26 09:52:09;;;;;;;19.48;3.50;;;11.30;99.90;;;;;;5113542;28;20047;-70
2023/12/26 09:54:37;;;;;;;15.23;3.38;;;11.40;99.90;;;;;;5113357;28;20023;-71
2023/12/26 09:57:03;;;;;;;21.48;4.07;;;11.30;99.90;;;;;;5113290;28;20127;-70
2023/12/26 09:59:29;;;;;;;22.23;4.10;;;11.30;99.90;;;;;;5103979;28;20027;-70
2023/12/26 10:01:55;;;;;;;19.67;3.55;;;11.20;99.90;;;;;;5107457;28;20158;-71
2023/12/26 10:04:20;;;;;;;22.20;4.10;;;11.20;99.90;;;;;;5113112;28;20123;-70
2023/12/26 10:06:46;;;;;;;31.73;3.72;;;11.10;99.90;;;;;;5094585;28;20023;-71
2023/12/26 10:09:11;;;;;;;21.67;3.60;;;11.10;99.90;;;;;;5105110;28;20388;-70
2023/12/26 10:11:43;;;;;;;19.13;3.33;;;11.10;99.90;;;;;;5113277;27;20467;-70
2023/12/26 10:14:09;;;;;;;20.13;3.50;;;11.10;99.90;;;;;;5123725;27;20058;-70
2023/12/26 10:16:34;;;;;;;18.40;3.25;;;11.00;99.90;;;;;;5105541;28;20066;-70
2023/12/26 10:19:00;;;;;;;20.50;3.53;;;11.00;99.90;;;;;;5125162;27;20019;-70
2023/12/26 10:21:27;;;;;;;19.67;3.22;;;11.00;99.90;;;;;;5118740;27;20091;-70
2023/12/26 10:23:55;;;;;;;15.30;2.97;;;10.90;99.90;;;;;;5125808;27;20400;-72
2023/12/26 10:26:22;;;;;;;16.95;2.85;;;10.90;99.90;;;;;;5125539;27;20057;-70
2023/12/26 10:28:50;;;;;;;14.80;2.33;;;10.80;99.90;;;;;;5124737;27;20054;-70
2023/12/26 10:31:19;;;;;;;18.65;2.80;;;10.80;99.90;;;;;;5119034;27;20114;-71
2023/12/26 10:33:45;;;;;;;15.40;2.72;;;10.80;99.90;;;;;;5126892;27;20035;-71
2023/12/26 10:36:11;;;;;;;17.75;3.28;;;10.90;99.90;;;;;;5108240;27;20448;-71
2023/12/26 10:38:39;;;;;;;16.25;3.33;;;10.90;99.90;;;;;;5112509;28;20019;-71
2023/12/26 10:41:12;;;;;;;18.70;2.72;;;11.00;99.90;;;;;;5105090;28;20039;-71
2023/12/26 10:43:42;;;;;;;19.50;3.05;;;11.00;99.90;;;;;;5106547;28;20374;-71
2023/12/26 10:46:08;;;;;;;20.42;3.35;;;11.10;99.90;;;;;;5112378;28;20537;-71
2023/12/26 10:48:35;;;;;;;18.88;3.20;;;11.10;99.90;;;;;;5112626;28;20020;-71
2023/12/26 10:51:01;;;;;;;22.20;3.03;;;11.20;99.90;;;;;;5111619;28;20080;-71
2023/12/26 10:53:42;;;;;;;17.75;3.05;;;11.30;99.90;;;;;;5112730;28;20114;-71
2023/12/26 10:56:08;;;;;;;19.42;3.50;;;11.30;99.90;;;;;;5105127;28;20059;-71
2023/12/26 10:58:35;;;;;;;21.60;3.88;;;11.30;99.90;;;;;;5112625;28;20062;-71
2023/12/26 11:01:01;;;;;;;16.85;3.53;;;11.30;99.90;;;;;;5112645;28;20071;-71
2023/12/26 11:03:29;;;;;;;22.55;3.38;;;11.30;99.90;;;;;;5116708;28;20459;-71
2023/12/26 11:05:55;;;;;;;22.25;4.32;;;11.30;99.90;;;;;;5098090;28;20027;-71
2023/12/26 11:08:21;;;;;;;19.95;3.50;;;11.30;99.90;;;;;;5116158;28;20024;-71
2023/12/26 11:10:47;;;;;;;22.67;3.38;;;11.20;99.90;;;;;;5113994;28;20032;-71
2023/12/26 11:13:13;;;;;;;24.63;3.80;;;11.20;99.90;;;;;;5115149;28;20020;-71
2023/12/26 11:15:39;;;;;;;17.55;3.67;;;11.10;99.90;;;;;;5116408;28;20031;-71
2023/12/26 11:18:05;;;;;;;19.95;4.57;;;11.10;99.90;;;;;;5115576;28;20023;-71
2023/12/26 11:20:31;;;;;;;20.10;4.00;;;11.00;99.90;;;;;;5105040;28;20032;-70
2023/12/26 11:22:58;;;;;;;20.83;3.60;;;10.90;99.90;;;;;;5116318;28;20035;-72
2023/12/26 11:25:23;;;;;;;20.58;3.97;;;10.90;99.90;;;;;;5116512;28;20123;-72
2023/12/26 11:27:49;;;;;;;19.65;3.60;;;10.90;99.90;;;;;;5116379;28;20447;-71
2023/12/26 11:30:15;;;;;;;15.88;3.33;;;10.90;99.90;;;;;;5112145;28;20068;-71
2023/12/26 11:32:41;;;;;;;21.65;3.70;;;10.90;99.90;;;;;;5084196;28;20031;-72
2023/12/26 11:35:06;;;;;;;18.15;3.45;;;10.90;99.90;;;;;;5116437;28;20059;-72
2023/12/26 11:37:32;;;;;;;21.75;3.47;;;10.90;99.90;;;;;;5115981;28;20027;-71
2023/12/26 11:39:58;;;;;;;23.08;4.30;;;10.90;99.90;;;;;;5108760;28;20032;-72
2023/12/26 11:42:24;;;;;;;17.00;3.00;;;11.00;99.90;;;;;;5111814;28;20039;-71
2023/12/26 11:44:49;;;;;;;16.45;3.40;;;10.90;99.90;;;;;;5111401;28;20024;-72
2023/12/26 11:47:15;;;;;;;20.10;3.50;;;10.90;99.90;;;;;;5113647;28;20093;-71
2023/12/26 11:49:41;;;;;;;19.13;3.75;;;10.90;99.90;;;;;;5115131;28;20038;-71
2023/12/26 11:52:06;;;;;;;15.35;3.35;;;11.00;99.90;;;;;;5099796;28;20047;-71
2023/12/26 11:54:32;;;;;;;15.27;2.90;;;11.00;99.90;;;;;;5103264;28;20055;-71
2023/12/26 11:56:58;;;;;;;17.20;2.97;;;11.00;99.90;;;;;;5115302;28;20117;-71
2023/12/26 11:59:23;;;;;;;14.35;3.17;;;11.00;99.90;;;;;;5114446;28;20038;-72
2023/12/26 12:01:49;;;;;;;17.17;3.35;;;11.00;99.90;;;;;;5112721;28;20088;-72
2023/12/26 12:04:14;;;;;;;19.00;3.38;;;11.00;99.90;;;;;;5099127;28;20040;-72
2023/12/26 12:07:00;;;;;;;20.67;3.65;;;11.10;99.90;;;;;;5115344;28;20349;-72
2023/12/26 12:09:25;;;;;;;21.83;3.35;;;11.20;99.90;;;;;;5115438;28;20024;-72
2023/12/26 12:11:51;;;;;;;20.45;3.40;;;11.40;99.90;;;;;;5097984;28;20039;-72
2023/12/26 12:14:16;;;;;;;23.20;3.75;;;11.40;99.90;;;;;;5112779;28;20020;-72
2023/12/26 12:16:42;;;;;;;20.15;3.17;;;11.50;99.90;;;;;;5115563;28;20020;-72
2023/12/26 12:19:13;;;;;;;17.77;3.25;;;11.50;99.90;;;;;;5115377;28;20031;-72
2023/12/26 12:21:39;;;;;;;18.10;3.00;;;11.50;99.90;;;;;;5109631;28;20030;-72
2023/12/26 12:24:05;;;;;;;17.80;2.97;;;11.50;99.90;;;;;;5115324;28;20031;-71
2023/12/26 12:27:03;;;;;;;18.10;2.97;;;11.50;99.90;;;;;;5113041;28;20070;-71
2023/12/26 12:29:59;;;;;;;27.92;4.55;;;11.50;99.90;;;;;;5105551;28;20037;-71
2023/12/26 12:32:36;;;;;;;17.27;3.42;;;11.30;99.90;;;;;;5100141;28;20085;-71
2023/12/26 12:35:30;;;;;;;16.85;3.40;;;11.30;99.90;;;;;;5093406;28;20665;-71
2023/12/26 12:37:56;;;;;;;21.48;3.42;;;11.30;99.90;;;;;;5104710;28;20032;-72